This is the latest recevied weather packets stored in our database for station/object VK2OB. If no packets are shown the sender has not sent any weather packets the latest 10 day(s).
| Time | Temp. | Humidity | Pressure | Rain* | Wind** | Luminosity | Snow |
|---|---|---|---|---|---|---|---|
| 1777683746 | 22.78° C | 72% | 1025.2 hPa | 0 mm | - | - | - |
| 1777683447 | 22.22° C | 74% | 1025.4 hPa | 0 mm | - | - | - |
| 1777683148 | 22.22° C | 73% | 1025.4 hPa | 0 mm | - | - | - |
| 1777682849 | 22.22° C | 73% | 1025.5 hPa | 0 mm | - | - | - |
| 1777682550 | 22.22° C | 75% | 1025.5 hPa | 0 mm | - | - | - |
| 1777682251 | 22.22° C | 75% | 1025.5 hPa | 0 mm | - | - | - |
| 1777681952 | 21.67° C | 77% | 1025.6 hPa | 0 mm | - | - | - |
| 1777681653 | 21.67° C | 77% | 1025.7 hPa | 0 mm | - | - | - |
| 1777681354 | 21.67° C | 78% | 1025.7 hPa | 0 mm | - | - | - |
| 1777681055 | 21.67° C | 79% | 1025.7 hPa | 0 mm | - | - | - |
| 1777680756 | 21.67° C | 78% | 1025.8 hPa | 0 mm | - | - | - |
| 1777680457 | 21.67° C | 76% | 1025.8 hPa | 0 mm | - | - | - |
| 1777680158 | 21.67° C | 74% | 1025.9 hPa | 0 mm | - | - | - |
| 1777679859 | 22.22° C | 71% | 1025.9 hPa | 0 mm | - | - | - |
| 1777679560 | 22.78° C | 69% | 1025.8 hPa | 0 mm | - | - | - |
| 1777679260 | 22.78° C | 70% | 1025.9 hPa | 0 mm | - | - | - |
| 1777678961 | 23.33° C | 70% | 1025.8 hPa | 0 mm | - | - | - |
| 1777678662 | 23.89° C | 72% | 1025.9 hPa | 0 mm | - | - | - |
| 1777678363 | 23.89° C | 73% | 1025.8 hPa | 0 mm | - | - | - |
| 1777678064 | 23.33° C | 78% | 1025.8 hPa | 0 mm | - | - | - |
| 1777677764 | 22.22° C | 79% | 1025.8 hPa | 0 mm | - | - | - |
| 1777677466 | 21.67° C | 83% | 1025.8 hPa | 0 mm | - | - | - |
| 1777677167 | 21.67° C | 83% | 1025.8 hPa | 0 mm | - | - | - |
| 1777676868 | 21.67° C | 82% | 1025.8 hPa | 0 mm | - | - | - |
| 1777676563 | 21.67° C | 85% | 1025.8 hPa | 0 mm | - | - | - |
* Rain latest hour (hover to see other rain measurements)
** Current wind speed in m/s (hover to see current wind gust speed)